Flight Number: AVA1719 Duration: 2:00
Departure: Frankfurt am Main (EDDF) at 08:00 Distance: 672.319 Nm
Arrival: Vilnius (EYVI) at 10:00 Equipment: B737

Weather Information
Frankfurt / M-Flughafen, Germany (EDDF) 50-03N 008-36E 113M Apr 14, 2024 - 11:20 PM EDT / 2024.04.15 0320 UTC
Wind: from the W (270 degrees) at 5 MPH (4 KT):0
Visibility: greater than 7 mile(s):0
Sky conditions: mostly clear Temperature: 53 F (12 C) Dew Point: 44 F (7 C) Relative Humidity: 71% Pressure (altimeter): 29.91 in. Hg (1013 hPa)
ob: EDDF 150320Z AUTO 27004KT 9999 FEW044 12/07 Q1013 NOSIG cycle: 3
Sunrise: 04:34 Sunset: 18:17 (UTC)

Vilnius, Lithuania (EYVI) 54-38N 025-06E 156M Apr 14, 2024 - 11:20 PM EDT / 2024.04.15 0320 UTC
Wind: from the W (260 degrees) at 20 MPH (17 KT):0
Visibility: greater than 7 mile(s):0
Sky conditions: mostly cloudy Temperature: 42 F (6 C) Dew Point: 33 F (1 C) Relative Humidity: 70% Pressure (altimeter): 29.65 in. Hg (1004 hPa)
ob: EYVI 150320Z 26017KT 9999 BKN024 06/01 Q1004 NOSIG cycle: 3
Sunrise: 03:18 Sunset: 17:19 (UTC)

TAF:2024/04/14 18:18 TAF TAF EYVI 141712Z 1418/1518 26015G25KT 9000 SCT040 TEMPO 1418/1424 27022G35KT TEMPO 1504/1511 27022G35KT BECMG 1516/1518 24005KT

Previous Pireps for this route
Date Flightnr Aircraft Flight time Fuel used Landing rate On time
2015-04-05AVA1294MD-8102.0313848-266Yes
2017-02-05AVA1294MD-8101.5712199-208Yes
2017-12-03AVA1294MD-8102.0413105-101Yes
2019-01-12AVA1294MD-8101.5613366-131Yes
2020-01-03AVA1294MD-8101.5413523-134Yes
2020-10-09AVA1294MD-812.0513631-913Yes
2020-11-16AVA1294MD-8101.4712518-101Yes
2021-11-10AVA1719B73701.5110379-324Yes
2022-11-30AVA1294MD-8101.5613000-115Yes
2023-12-28AVA1719B73701.5210113-212Yes
(pireps marked green are flown by you)

Route map